createdAt,value
2023-06-30T02:24:27.666Z,67.40
2023-06-30T02:34:57.673Z,67.90
2023-06-30T02:41:56.254Z,68.00
2023-06-30T03:09:34.642Z,68.30
2023-06-30T03:40:49.941Z,68.70
2023-06-30T03:46:56.203Z,67.80
2023-06-30T03:50:36.225Z,68.60
2023-06-30T04:16:31.113Z,68.60
2023-06-30T04:31:31.059Z,69.20
2023-06-30T04:41:17.914Z,69.70
2023-06-30T04:49:19.739Z,70.70
2023-06-30T05:07:09.124Z,69.20
2023-06-30T05:25:14.640Z,69.70
2023-06-30T05:41:02.179Z,70.30
2023-06-30T05:44:18.339Z,70.40
2023-06-30T05:47:55.421Z,70.30
2023-06-30T06:02:57.982Z,69.00
2023-06-30T06:10:03.232Z,69.20
2023-06-30T06:39:12.761Z,68.90
2023-06-30T06:46:46.117Z,67.80
2023-06-30T06:49:48.185Z,67.80
2023-06-30T07:46:06.058Z,65.30
2023-06-30T08:00:29.322Z,64.40
2023-06-30T08:31:05.971Z,61.10
2023-06-30T08:46:33.358Z,60.90
2023-06-30T09:01:38.646Z,59.00
2023-06-30T09:04:46.873Z,58.60
2023-06-30T09:12:13.549Z,59.00
2023-06-30T09:15:31.728Z,59.00
2023-06-30T09:18:54.996Z,58.10
2023-06-30T09:21:49.416Z,57.80
2023-06-30T09:28:18.193Z,57.50
2023-06-30T09:34:28.751Z,57.50
2023-06-30T09:37:31.018Z,56.90
2023-06-30T09:43:09.072Z,54.10
2023-06-30T09:49:48.254Z,53.60
2023-06-30T09:52:53.827Z,52.90
2023-06-30T09:59:55.571Z,52.40
2023-06-30T10:03:28.743Z,52.40
2023-06-30T10:09:49.308Z,52.60
2023-06-30T10:28:39.616Z,51.80
2023-06-30T10:31:39.169Z,51.30
2023-06-30T10:34:33.104Z,50.90
2023-06-30T10:37:15.115Z,51.20
2023-06-30T10:44:35.060Z,51.10
2023-06-30T10:47:11.712Z,51.30
2023-06-30T10:53:17.794Z,50.30
2023-06-30T10:55:55.057Z,50.90
2023-06-30T10:58:31.859Z,50.70
2023-06-30T11:01:15.251Z,50.10
2023-06-30T11:03:58.387Z,50.00
2023-06-30T11:06:37.375Z,50.00
2023-06-30T11:09:26.249Z,50.50
2023-06-30T11:11:56.558Z,50.80
2023-06-30T11:18:10.833Z,50.70
2023-06-30T11:21:44.811Z,50.80
2023-06-30T11:28:15.079Z,49.40
2023-06-30T11:31:07.042Z,49.20
2023-06-30T11:44:42.535Z,48.40
2023-06-30T11:47:38.732Z,48.80
2023-06-30T11:50:37.557Z,48.70
2023-06-30T12:00:41.976Z,48.70
2023-06-30T12:06:41.550Z,47.60
2023-06-30T12:13:30.654Z,47.70
2023-06-30T12:16:08.382Z,47.60
2023-06-30T12:19:58.507Z,47.50
2023-06-30T12:22:31.521Z,47.20
2023-06-30T12:29:48.148Z,47.80
2023-06-30T12:35:58.366Z,47.30
2023-06-30T12:48:50.246Z,46.80
2023-06-30T12:52:22.561Z,46.60
2023-06-30T12:55:15.994Z,46.30
2023-06-30T13:01:14.118Z,45.90
2023-06-30T13:04:00.327Z,46.50
2023-06-30T13:06:27.548Z,45.40
2023-06-30T13:09:21.975Z,45.80
2023-06-30T13:16:00.351Z,45.60
2023-06-30T13:18:51.339Z,45.30
2023-06-30T13:21:31.862Z,45.20
2023-06-30T13:24:39.931Z,45.20
2023-06-30T13:27:31.441Z,44.90
2023-06-30T13:33:36.364Z,45.30
2023-06-30T13:36:03.764Z,44.70
2023-06-30T13:43:04.594Z,45.10
2023-06-30T13:47:05.523Z,44.90
2023-06-30T13:50:48.420Z,44.30
2023-06-30T13:53:49.222Z,45.20
2023-06-30T14:00:34.748Z,43.70
2023-06-30T14:06:48.136Z,44.50
2023-06-30T14:09:27.016Z,44.30
2023-06-30T14:15:34.837Z,43.80
2023-06-30T14:18:16.336Z,43.40
2023-06-30T14:24:59.149Z,43.20
2023-06-30T14:33:39.237Z,44.40
2023-06-30T14:36:19.426Z,45.00
2023-06-30T14:38:47.484Z,45.10
2023-06-30T14:41:14.371Z,44.60
2023-06-30T14:43:41.341Z,44.80
2023-06-30T14:46:08.328Z,45.80
2023-06-30T14:48:35.196Z,45.00
2023-06-30T14:51:02.118Z,45.20
2023-06-30T14:53:29.082Z,45.30
2023-06-30T14:55:55.984Z,45.60
2023-06-30T14:58:22.796Z,45.20
2023-06-30T15:00:50.191Z,44.70
2023-06-30T15:03:18.112Z,44.60
2023-06-30T15:05:45.307Z,44.40
2023-06-30T15:08:12.753Z,44.60
2023-06-30T15:10:39.670Z,44.40
2023-06-30T15:13:06.554Z,44.70
2023-06-30T15:15:33.679Z,44.20
2023-06-30T15:18:00.599Z,44.10
2023-06-30T15:20:28.087Z,44.30
2023-06-30T15:22:55.129Z,44.60
2023-06-30T15:25:27.873Z,44.80
2023-06-30T15:27:55.984Z,45.20
2023-06-30T15:30:23.556Z,44.40
2023-06-30T15:32:51.682Z,44.20
2023-06-30T15:35:19.082Z,44.00
2023-06-30T15:37:46.302Z,44.20
2023-06-30T15:40:13.873Z,44.10
2023-06-30T15:42:40.859Z,44.20
2023-06-30T15:45:08.285Z,44.20
2023-06-30T15:47:35.263Z,44.00
2023-06-30T15:50:02.429Z,43.70
2023-06-30T15:52:29.442Z,44.20
2023-06-30T15:55:13.857Z,44.20
2023-06-30T15:57:41.677Z,43.90
2023-06-30T16:00:10.432Z,44.50
2023-06-30T16:02:42.273Z,44.00
2023-06-30T16:05:09.953Z,44.80
2023-06-30T16:07:37.002Z,45.10
2023-06-30T16:10:05.987Z,46.10
2023-06-30T16:12:32.908Z,45.70
2023-06-30T16:14:59.915Z,46.20
2023-06-30T16:17:26.995Z,46.50
2023-06-30T16:19:53.857Z,46.80
2023-06-30T16:22:20.759Z,46.90
2023-06-30T16:24:47.700Z,46.80
2023-06-30T16:27:14.617Z,46.70
2023-06-30T16:29:41.838Z,47.30
2023-06-30T16:32:09.204Z,47.80
2023-06-30T16:34:36.409Z,48.10
2023-06-30T16:37:04.001Z,48.40
2023-06-30T16:39:30.990Z,48.60
2023-06-30T16:41:57.875Z,48.60
2023-06-30T16:44:28.308Z,48.70
2023-06-30T16:46:55.300Z,48.00
2023-06-30T16:49:22.370Z,48.10
2023-06-30T16:51:49.237Z,48.50
2023-06-30T16:54:16.184Z,49.30
2023-06-30T16:56:43.041Z,48.80
2023-06-30T16:59:09.968Z,48.80
2023-06-30T17:01:36.902Z,49.00
2023-06-30T17:04:04.288Z,49.40
2023-06-30T17:06:31.219Z,49.70
2023-06-30T17:09:01.121Z,49.50
2023-06-30T17:11:28.158Z,49.30
2023-06-30T17:13:55.056Z,49.70
2023-06-30T17:16:24.944Z,49.60
2023-06-30T17:18:52.331Z,49.90
2023-06-30T17:21:19.129Z,50.00
2023-06-30T17:23:45.989Z,50.50
2023-06-30T17:26:12.885Z,50.50
2023-06-30T17:28:39.892Z,50.90
2023-06-30T17:31:06.937Z,50.60
2023-06-30T17:33:33.945Z,50.60
2023-06-30T17:36:00.927Z,50.50
2023-06-30T17:38:27.761Z,50.20
2023-06-30T17:40:54.829Z,50.50
2023-06-30T17:43:21.758Z,50.50
2023-06-30T17:45:49.879Z,50.60
2023-06-30T17:48:16.729Z,51.00
2023-06-30T17:50:43.794Z,50.90
2023-06-30T17:53:10.754Z,50.90
2023-06-30T17:55:37.637Z,51.00
2023-06-30T17:58:04.529Z,51.00
2023-06-30T18:00:31.361Z,51.30
2023-06-30T18:02:58.246Z,51.10
2023-06-30T18:05:25.184Z,51.00
2023-06-30T18:07:52.197Z,50.90
2023-06-30T18:10:20.654Z,51.00
2023-06-30T18:12:47.661Z,51.20
2023-06-30T18:15:17.181Z,51.40
2023-06-30T18:17:44.886Z,51.40
2023-06-30T18:20:12.340Z,51.80
2023-06-30T18:22:39.487Z,51.80
2023-06-30T18:25:06.894Z,51.80
2023-06-30T18:27:33.875Z,52.10
2023-06-30T18:30:01.459Z,52.40
2023-06-30T18:32:28.498Z,52.60
2023-06-30T18:34:55.396Z,53.00
2023-06-30T18:37:22.358Z,52.60
2023-06-30T18:39:49.418Z,52.10
2023-06-30T18:42:17.052Z,52.00
2023-06-30T18:44:44.018Z,52.40
2023-06-30T18:47:10.958Z,52.60
2023-06-30T18:49:38.199Z,53.10
2023-06-30T18:52:05.762Z,53.40
2023-06-30T18:54:32.734Z,53.70
2023-06-30T18:56:59.552Z,53.70
2023-06-30T18:59:26.505Z,53.50
2023-06-30T19:01:53.546Z,53.10
2023-06-30T19:04:20.802Z,52.80
2023-06-30T19:06:48.829Z,52.60
2023-06-30T19:09:15.771Z,52.70
2023-06-30T19:11:42.757Z,52.80
2023-06-30T19:14:09.822Z,52.70
2023-06-30T19:16:36.719Z,52.80
2023-06-30T19:19:03.590Z,52.90
2023-06-30T19:21:30.597Z,53.30
2023-06-30T19:23:59.496Z,53.00
2023-06-30T19:26:26.499Z,52.70
2023-06-30T19:28:53.498Z,52.70
2023-06-30T19:31:21.948Z,52.70
2023-06-30T19:33:49.126Z,53.30
2023-06-30T19:36:16.098Z,53.70
2023-06-30T19:38:43.021Z,52.80
2023-06-30T19:41:11.716Z,52.70
2023-06-30T19:43:40.422Z,52.40
2023-06-30T19:46:07.369Z,52.20
2023-06-30T19:48:34.256Z,52.50
2023-06-30T19:51:01.097Z,52.20
2023-06-30T19:53:28.018Z,52.90
2023-06-30T19:55:54.833Z,52.70
2023-06-30T19:58:21.776Z,52.40
2023-06-30T20:00:48.698Z,52.60
2023-06-30T20:03:15.736Z,52.80
2023-06-30T20:05:42.780Z,52.80
2023-06-30T20:08:10.617Z,53.00
2023-06-30T20:10:37.548Z,53.00
2023-06-30T20:13:05.563Z,52.90
2023-06-30T20:15:34.285Z,52.40
2023-06-30T20:18:01.119Z,52.60
2023-06-30T20:20:29.078Z,52.20
2023-06-30T20:22:55.963Z,52.70
2023-06-30T20:25:24.413Z,52.20
2023-06-30T20:27:51.997Z,52.40
2023-06-30T20:30:19.203Z,52.20
2023-06-30T20:32:46.355Z,51.90
2023-06-30T20:35:14.886Z,51.90
2023-06-30T20:37:41.876Z,53.00
2023-06-30T20:40:09.552Z,53.20
2023-06-30T20:42:36.708Z,53.70
2023-06-30T20:45:04.998Z,53.50
2023-06-30T20:47:32.027Z,53.70
2023-06-30T20:49:59.496Z,53.20
2023-06-30T20:52:26.308Z,53.30
2023-06-30T20:54:53.143Z,53.40
2023-06-30T20:57:20.176Z,53.40
2023-06-30T20:59:47.038Z,53.10
2023-06-30T21:02:14.131Z,53.60
2023-06-30T21:04:41.264Z,52.80
2023-06-30T21:07:08.225Z,52.80
2023-06-30T21:09:36.584Z,52.90
2023-06-30T21:12:03.895Z,54.10
2023-06-30T21:14:30.726Z,54.30
2023-06-30T21:16:57.705Z,54.60
2023-06-30T21:19:24.616Z,54.10
2023-06-30T21:21:51.471Z,53.80
2023-06-30T21:24:18.431Z,54.70
2023-06-30T21:26:45.335Z,54.50
2023-06-30T21:29:12.519Z,54.80
2023-06-30T21:31:40.038Z,55.00
2023-06-30T21:34:07.002Z,55.20
2023-06-30T21:36:36.512Z,55.30
2023-06-30T21:39:05.594Z,55.20
2023-06-30T21:41:32.566Z,55.40
2023-06-30T21:43:59.542Z,55.40
2023-06-30T21:46:26.464Z,55.60
2023-06-30T21:48:53.988Z,56.30
2023-06-30T21:51:20.872Z,56.30
2023-06-30T21:53:47.928Z,56.40
2023-06-30T21:56:14.877Z,56.20
2023-06-30T21:58:41.806Z,56.20
2023-06-30T22:01:08.937Z,56.90
2023-06-30T22:03:36.052Z,56.70
2023-06-30T22:06:03.275Z,57.10
2023-06-30T22:08:30.157Z,57.30
2023-06-30T22:10:58.906Z,57.20
2023-06-30T22:13:26.060Z,57.50
2023-06-30T22:15:53.032Z,58.10
2023-06-30T22:18:20.187Z,58.20
2023-06-30T22:20:47.583Z,58.30
2023-06-30T22:23:14.883Z,58.40
2023-06-30T22:25:41.750Z,58.30
2023-06-30T22:28:08.670Z,58.20
2023-06-30T22:30:35.623Z,58.40
2023-06-30T22:33:03.418Z,58.40
2023-06-30T22:35:30.382Z,58.40
2023-06-30T22:37:57.328Z,58.40
2023-06-30T22:40:24.252Z,58.40
2023-06-30T22:42:51.086Z,58.60
2023-06-30T22:45:18.085Z,58.60
2023-06-30T22:47:45.177Z,58.90
2023-06-30T22:50:12.156Z,58.80
2023-06-30T22:52:41.941Z,59.10
2023-06-30T22:55:09.253Z,59.10
2023-06-30T22:57:36.334Z,58.90
2023-06-30T23:00:04.034Z,59.00
2023-06-30T23:02:30.993Z,59.20
2023-06-30T23:04:58.086Z,59.40
2023-06-30T23:07:25.035Z,59.30
2023-06-30T23:09:52.018Z,59.20
2023-06-30T23:12:18.853Z,59.70
2023-06-30T23:14:45.790Z,58.90
2023-06-30T23:17:16.731Z,58.90
2023-06-30T23:19:49.915Z,58.90
2023-06-30T23:22:18.273Z,58.80
2023-06-30T23:24:47.681Z,58.80
2023-06-30T23:27:15.099Z,58.90
2023-06-30T23:29:41.975Z,58.70
2023-06-30T23:32:10.824Z,59.00
2023-06-30T23:34:40.079Z,59.10
2023-06-30T23:37:12.348Z,59.40
2023-06-30T23:39:40.034Z,59.30
2023-06-30T23:42:07.837Z,59.50
2023-06-30T23:44:34.915Z,59.30
2023-06-30T23:47:12.673Z,59.00
2023-06-30T23:49:39.746Z,58.60
2023-06-30T23:52:08.547Z,58.70
2023-06-30T23:54:35.444Z,58.50
2023-06-30T23:57:02.408Z,58.60
2023-06-30T23:59:29.261Z,58.40
